createdAt,value
2017-12-15T00:01:50.006Z,2.50
2017-12-15T00:04:17.473Z,2.83
2017-12-15T00:06:45.697Z,2.80
2017-12-15T00:09:13.174Z,3.33
2017-12-15T00:11:40.757Z,3.50
2017-12-15T00:14:08.941Z,3.07
2017-12-15T00:16:37.193Z,3.00
2017-12-15T00:19:04.652Z,3.70
2017-12-15T00:21:32.125Z,3.23
2017-12-15T00:24:00.597Z,3.47
2017-12-15T00:26:28.084Z,4.20
2017-12-15T00:28:55.683Z,4.37
2017-12-15T00:31:23.285Z,4.23
2017-12-15T00:33:50.908Z,4.37
2017-12-15T00:36:18.581Z,4.20
2017-12-15T00:38:46.046Z,4.70
2017-12-15T00:41:13.512Z,4.50
2017-12-15T00:43:40.972Z,4.10
2017-12-15T00:46:08.609Z,4.60
2017-12-15T00:48:36.060Z,5.00
2017-12-15T00:51:03.564Z,5.27
2017-12-15T00:53:31.007Z,5.37
2017-12-15T00:55:59.229Z,4.80
2017-12-15T00:58:26.733Z,5.27
2017-12-15T01:00:54.189Z,4.73
2017-12-15T01:03:21.661Z,5.00
2017-12-15T01:05:49.896Z,4.73
2017-12-15T01:08:17.353Z,4.50
2017-12-15T01:10:44.807Z,5.53
2017-12-15T01:13:12.421Z,5.40
2017-12-15T01:15:40.655Z,4.77
2017-12-15T01:18:09.625Z,5.63
2017-12-15T01:20:37.161Z,5.17
2017-12-15T01:23:04.709Z,4.93
2017-12-15T01:25:32.932Z,4.83
2017-12-15T01:28:00.413Z,5.27
2017-12-15T01:30:27.880Z,4.90
2017-12-15T01:32:56.109Z,5.47
2017-12-15T01:35:23.579Z,4.67
2017-12-15T01:37:51.151Z,5.30
2017-12-15T01:40:18.717Z,5.30
2017-12-15T01:42:46.176Z,5.10
2017-12-15T01:45:13.633Z,5.40
2017-12-15T01:47:41.863Z,5.30
2017-12-15T01:50:09.329Z,4.53
2017-12-15T01:52:36.797Z,4.63
2017-12-15T01:55:04.261Z,5.17
2017-12-15T01:57:31.932Z,4.70
2017-12-15T01:59:59.407Z,4.80
2017-12-15T02:02:27.635Z,3.83
2017-12-15T02:04:55.093Z,4.73
2017-12-15T02:07:22.552Z,4.97
2017-12-15T02:09:50.026Z,4.90
2017-12-15T02:12:17.494Z,4.60
2017-12-15T02:14:44.951Z,4.20
2017-12-15T02:17:12.469Z,5.20
2017-12-15T02:19:39.933Z,4.63
2017-12-15T02:22:07.402Z,4.43
2017-12-15T02:24:34.861Z,5.67
2017-12-15T02:27:02.324Z,5.23
2017-12-15T02:29:29.794Z,5.63
2017-12-15T02:31:57.259Z,5.77
2017-12-15T02:34:25.546Z,5.60
2017-12-15T02:36:53.037Z,6.50
2017-12-15T02:39:21.120Z,6.10
2017-12-15T02:41:48.631Z,6.07
2017-12-15T02:44:16.894Z,8.07
2017-12-15T02:46:45.207Z,6.17
2017-12-15T02:49:12.674Z,6.00
2017-12-15T02:51:40.151Z,7.63
2017-12-15T02:54:07.650Z,8.43
2017-12-15T02:56:35.889Z,9.23
2017-12-15T02:59:03.338Z,8.40
2017-12-15T03:01:30.915Z,8.33
2017-12-15T03:03:58.418Z,7.47
2017-12-15T03:06:25.889Z,8.07
2017-12-15T03:08:53.345Z,8.10
2017-12-15T03:11:20.814Z,7.10
2017-12-15T03:13:48.320Z,6.60
2017-12-15T03:16:15.794Z,6.60
2017-12-15T03:18:43.252Z,6.83
2017-12-15T03:21:10.774Z,6.67
2017-12-15T03:23:38.251Z,6.57
2017-12-15T03:26:06.501Z,5.87
2017-12-15T03:28:33.960Z,6.90
2017-12-15T03:31:01.415Z,6.20
2017-12-15T03:33:28.893Z,5.47
2017-12-15T03:35:57.121Z,6.37
2017-12-15T03:38:24.590Z,5.80
2017-12-15T03:40:52.077Z,6.30
2017-12-15T03:43:19.550Z,6.27
2017-12-15T03:45:47.777Z,5.93
2017-12-15T03:48:15.266Z,6.33
2017-12-15T03:50:42.752Z,5.10
2017-12-15T03:53:10.226Z,5.60
2017-12-15T03:55:37.708Z,6.33
2017-12-15T03:58:05.161Z,5.53
2017-12-15T04:00:32.630Z,6.40
2017-12-15T04:03:00.110Z,5.20
2017-12-15T04:05:27.567Z,5.43
2017-12-15T04:07:55.808Z,6.23
2017-12-15T04:10:23.281Z,5.87
2017-12-15T04:12:50.749Z,5.83
2017-12-15T04:15:18.307Z,5.30
2017-12-15T04:17:45.784Z,8.03
2017-12-15T04:20:14.173Z,5.77
2017-12-15T04:22:41.897Z,4.87
2017-12-15T04:25:09.368Z,5.97
2017-12-15T04:27:37.612Z,4.93
2017-12-15T04:30:05.074Z,5.07
2017-12-15T04:32:32.557Z,4.70
2017-12-15T04:35:00.797Z,5.20
2017-12-15T04:37:28.265Z,5.00
2017-12-15T04:39:55.733Z,5.23
2017-12-15T04:42:23.208Z,4.73
2017-12-15T04:44:51.449Z,5.00
2017-12-15T04:47:18.897Z,4.80
2017-12-15T04:49:46.369Z,4.87
2017-12-15T04:52:13.841Z,4.47
2017-12-15T04:54:41.312Z,4.53
2017-12-15T04:57:09.562Z,5.37
2017-12-15T04:59:37.030Z,5.20
2017-12-15T05:02:04.504Z,5.20
2017-12-15T05:04:32.738Z,5.57
2017-12-15T05:07:00.236Z,5.73
2017-12-15T05:09:28.472Z,5.30
2017-12-15T05:11:55.942Z,5.73
2017-12-15T05:14:23.409Z,5.60
2017-12-15T05:16:50.882Z,6.10
2017-12-15T05:19:19.233Z,5.77
2017-12-15T05:21:46.701Z,5.47
2017-12-15T05:24:14.148Z,5.33
2017-12-15T05:26:41.629Z,6.30
2017-12-15T05:29:09.892Z,6.80
2017-12-15T05:31:37.345Z,5.40
2017-12-15T05:34:04.813Z,6.23
2017-12-15T05:36:33.261Z,5.77
2017-12-15T05:39:00.746Z,6.20
2017-12-15T05:41:28.196Z,5.37
2017-12-15T05:43:55.664Z,5.20
2017-12-15T05:46:23.902Z,5.80
2017-12-15T05:48:51.530Z,5.90
2017-12-15T05:51:18.993Z,5.70
2017-12-15T05:53:46.489Z,5.20
2017-12-15T05:56:13.974Z,5.30
2017-12-15T05:58:42.206Z,5.30
2017-12-15T06:01:09.669Z,5.87
2017-12-15T06:03:37.146Z,5.50
2017-12-15T06:06:04.600Z,5.30
2017-12-15T06:08:32.077Z,5.10
2017-12-15T06:11:00.310Z,5.60
2017-12-15T06:13:27.768Z,5.00
2017-12-15T06:15:55.232Z,5.20
2017-12-15T06:18:22.707Z,4.70
2017-12-15T06:20:50.182Z,5.03
2017-12-15T06:23:18.456Z,4.00
2017-12-15T06:25:46.695Z,5.00
2017-12-15T06:28:14.164Z,4.43
2017-12-15T06:30:45.706Z,4.10
2017-12-15T06:33:14.833Z,4.60
2017-12-15T06:35:43.068Z,4.43
2017-12-15T06:38:10.525Z,4.10
2017-12-15T06:40:38.002Z,3.77
2017-12-15T06:43:05.477Z,4.27
2017-12-15T06:45:33.700Z,3.90
2017-12-15T06:48:01.444Z,3.93
2017-12-15T06:50:28.910Z,4.30
2017-12-15T06:52:56.374Z,3.63
2017-12-15T06:55:23.829Z,3.60
2017-12-15T06:57:52.005Z,4.60
2017-12-15T07:00:19.489Z,3.33
2017-12-15T07:02:46.964Z,3.50
2017-12-15T07:05:15.187Z,3.23
2017-12-15T07:07:42.660Z,3.53
2017-12-15T07:10:10.135Z,3.20
2017-12-15T07:12:37.666Z,2.90
2017-12-15T07:15:05.125Z,2.80
2017-12-15T07:17:32.606Z,2.80
2017-12-15T07:20:00.059Z,2.80
2017-12-15T07:22:27.565Z,2.70
2017-12-15T07:24:55.040Z,2.93
2017-12-15T07:27:22.561Z,2.80
2017-12-15T07:29:51.299Z,3.30
2017-12-15T07:32:18.821Z,3.10
2017-12-15T07:34:46.314Z,2.80
2017-12-15T07:37:13.777Z,2.83
2017-12-15T07:39:41.252Z,4.00
2017-12-15T07:42:08.717Z,2.50
2017-12-15T07:44:36.184Z,3.73
2017-12-15T07:47:05.119Z,2.97
2017-12-15T07:49:32.586Z,2.87
2017-12-15T07:52:00.043Z,3.00
2017-12-15T07:54:27.530Z,2.60
2017-12-15T07:56:55.006Z,3.13
2017-12-15T07:59:23.361Z,3.60
2017-12-15T08:01:51.024Z,3.00
2017-12-15T08:04:18.480Z,3.10
2017-12-15T08:06:46.725Z,3.10
2017-12-15T08:09:14.181Z,3.23
2017-12-15T08:11:41.651Z,3.23
2017-12-15T08:14:09.109Z,2.37
2017-12-15T08:16:36.581Z,2.90
2017-12-15T08:19:04.096Z,2.87
2017-12-15T08:21:31.550Z,3.37
2017-12-15T08:23:59.014Z,3.40
2017-12-15T08:26:26.489Z,3.20
2017-12-15T08:28:56.010Z,3.00
2017-12-15T08:31:23.485Z,2.80
2017-12-15T08:33:51.709Z,3.10
2017-12-15T08:36:19.209Z,2.33
2017-12-15T08:38:47.451Z,2.23
2017-12-15T08:41:14.934Z,2.00
2017-12-15T08:43:43.281Z,3.23
2017-12-15T08:46:10.739Z,2.60
2017-12-15T08:48:38.217Z,2.97
2017-12-15T08:51:05.683Z,3.20
2017-12-15T08:53:33.337Z,4.63
2017-12-15T08:56:00.866Z,4.13
2017-12-15T08:58:28.376Z,3.00
2017-12-15T09:00:56.619Z,3.00
2017-12-15T09:03:24.086Z,2.90
2017-12-15T09:05:51.553Z,3.20
2017-12-15T09:08:19.029Z,2.67
2017-12-15T09:10:47.321Z,2.70
2017-12-15T09:13:14.803Z,2.73
2017-12-15T09:15:42.271Z,2.37
2017-12-15T09:18:09.733Z,2.77
2017-12-15T09:20:37.204Z,3.17
2017-12-15T09:23:04.672Z,3.43
2017-12-15T09:25:32.149Z,3.63
2017-12-15T09:28:00.465Z,4.37
2017-12-15T09:30:27.938Z,4.07
2017-12-15T09:32:55.398Z,3.63
2017-12-15T09:35:22.862Z,3.50
2017-12-15T09:37:50.401Z,3.53
2017-12-15T09:40:17.873Z,4.07
2017-12-15T09:42:45.343Z,4.30
2017-12-15T09:45:12.805Z,3.07
2017-12-15T09:47:40.274Z,3.00
2017-12-15T09:50:08.520Z,3.53
2017-12-15T09:52:35.986Z,2.90
2017-12-15T09:55:03.449Z,2.90
2017-12-15T09:57:30.924Z,3.23
2017-12-15T09:59:59.296Z,3.20
2017-12-15T10:02:27.521Z,3.30
2017-12-15T10:04:54.992Z,2.80
2017-12-15T10:07:23.026Z,3.00
2017-12-15T10:09:50.509Z,2.73
2017-12-15T10:12:18.142Z,3.00
2017-12-15T10:14:45.693Z,3.07
2017-12-15T10:17:13.227Z,2.77
2017-12-15T10:19:41.515Z,3.50
2017-12-15T10:22:09.737Z,2.90
2017-12-15T10:24:37.202Z,2.97
2017-12-15T10:27:04.689Z,3.00
2017-12-15T10:29:32.148Z,2.93
2017-12-15T10:31:59.625Z,3.73
2017-12-15T10:34:27.936Z,4.13
2017-12-15T10:36:55.423Z,3.60
2017-12-15T10:39:22.868Z,3.27
2017-12-15T10:41:50.322Z,3.73
2017-12-15T10:44:17.811Z,3.70
2017-12-15T10:46:45.280Z,4.40
2017-12-15T10:49:13.637Z,3.27
2017-12-15T10:51:41.114Z,4.67
2017-12-15T10:54:09.333Z,3.40
2017-12-15T10:56:36.804Z,3.63
2017-12-15T10:59:04.393Z,2.93
2017-12-15T11:01:31.854Z,3.30
2017-12-15T11:04:00.082Z,3.00
2017-12-15T11:06:27.573Z,3.57
2017-12-15T11:08:55.041Z,3.60
2017-12-15T11:11:22.509Z,2.93
2017-12-15T11:13:50.891Z,2.80
2017-12-15T11:16:19.135Z,3.20
2017-12-15T11:18:47.367Z,2.27
2017-12-15T11:21:14.839Z,2.93
2017-12-15T11:23:42.297Z,3.73
2017-12-15T11:26:09.782Z,3.20
2017-12-15T11:28:37.316Z,3.10
2017-12-15T11:31:04.914Z,2.50
2017-12-15T11:33:32.457Z,3.23
2017-12-15T11:36:00.077Z,4.30
2017-12-15T11:38:27.633Z,3.00
2017-12-15T11:40:55.119Z,3.27
2017-12-15T11:43:22.585Z,5.10
2017-12-15T11:45:50.052Z,3.03
2017-12-15T11:48:17.614Z,3.00
2017-12-15T11:50:45.063Z,2.97
2017-12-15T11:53:12.538Z,3.60
2017-12-15T11:55:40.755Z,3.50
2017-12-15T11:58:08.360Z,3.57
2017-12-15T12:00:35.821Z,3.23
2017-12-15T12:03:03.292Z,3.37
2017-12-15T12:05:31.504Z,3.80
2017-12-15T12:07:58.981Z,5.97
2017-12-15T12:10:26.446Z,3.63
2017-12-15T12:12:53.921Z,3.13
2017-12-15T12:15:21.428Z,2.60
2017-12-15T12:17:48.905Z,3.30
2017-12-15T12:20:16.366Z,2.90
2017-12-15T12:22:43.858Z,3.00
2017-12-15T12:25:11.306Z,4.53
2017-12-15T12:27:38.765Z,3.23
2017-12-15T12:30:07.039Z,3.07
2017-12-15T12:32:34.497Z,3.40
2017-12-15T12:35:01.970Z,3.60
2017-12-15T12:37:30.206Z,3.80
2017-12-15T12:39:57.665Z,3.17
2017-12-15T12:42:25.135Z,4.90
2017-12-15T12:44:52.625Z,3.03
2017-12-15T12:47:20.113Z,3.07
2017-12-15T12:49:47.576Z,3.10
2017-12-15T12:52:15.040Z,3.30
2017-12-15T12:54:42.526Z,3.30
2017-12-15T12:57:10.003Z,3.50
2017-12-15T12:59:38.223Z,3.50
2017-12-15T13:02:05.699Z,2.47
2017-12-15T13:04:33.173Z,2.87
2017-12-15T13:07:00.651Z,3.23
2017-12-15T13:09:28.879Z,3.47
2017-12-15T13:11:56.354Z,3.37
2017-12-15T13:14:23.817Z,3.53
2017-12-15T13:16:51.331Z,3.43
2017-12-15T13:19:18.966Z,3.40
2017-12-15T13:21:46.449Z,3.57
2017-12-15T13:24:13.929Z,3.03
2017-12-15T13:26:41.408Z,3.30
2017-12-15T13:29:08.879Z,3.87
2017-12-15T13:31:37.108Z,3.57
2017-12-15T13:34:04.598Z,3.60
2017-12-15T13:36:32.074Z,4.33
2017-12-15T13:39:00.321Z,3.80
2017-12-15T13:41:28.434Z,3.87
2017-12-15T13:43:55.922Z,3.50
2017-12-15T13:46:23.401Z,3.43
2017-12-15T13:48:51.071Z,4.10
2017-12-15T13:51:18.537Z,3.07
2017-12-15T13:53:46.789Z,3.87
2017-12-15T13:56:14.265Z,3.40
2017-12-15T13:58:41.709Z,3.30
2017-12-15T14:01:09.197Z,3.60
2017-12-15T14:03:37.454Z,3.33
2017-12-15T14:06:04.941Z,3.23
2017-12-15T14:08:32.420Z,3.20
2017-12-15T14:10:59.894Z,3.87
2017-12-15T14:13:27.374Z,3.40
2017-12-15T14:15:56.394Z,2.80
2017-12-15T14:18:24.622Z,2.23
2017-12-15T14:20:52.100Z,1.90
2017-12-15T14:23:19.556Z,2.60
2017-12-15T14:25:47.062Z,2.27
2017-12-15T14:28:14.553Z,2.33
2017-12-15T14:30:42.301Z,2.63
2017-12-15T14:33:09.773Z,3.10
2017-12-15T14:35:37.225Z,2.27
2017-12-15T14:38:04.711Z,2.20
2017-12-15T14:40:32.258Z,3.00
2017-12-15T14:42:59.733Z,2.70
2017-12-15T14:45:27.184Z,2.40
2017-12-15T14:47:54.793Z,2.87
2017-12-15T14:50:22.249Z,2.67
2017-12-15T14:52:49.728Z,3.20
2017-12-15T14:55:17.212Z,2.90
2017-12-15T14:57:44.661Z,3.10
2017-12-15T15:00:13.213Z,2.60
2017-12-15T15:02:40.689Z,2.50
2017-12-15T15:05:08.282Z,3.20
2017-12-15T15:07:36.515Z,2.57
2017-12-15T15:10:03.972Z,2.43
2017-12-15T15:12:31.445Z,2.57
2017-12-15T15:14:58.908Z,2.60
2017-12-15T15:17:26.368Z,2.73
2017-12-15T15:19:53.840Z,2.83
2017-12-15T15:22:22.056Z,2.67
2017-12-15T15:24:49.564Z,2.33
2017-12-15T15:27:17.012Z,2.10
2017-12-15T15:29:44.477Z,2.20
2017-12-15T15:32:12.705Z,2.13
2017-12-15T15:34:40.225Z,2.07
2017-12-15T15:37:08.567Z,2.00
2017-12-15T15:39:36.029Z,2.07
2017-12-15T15:42:03.516Z,2.23
2017-12-15T15:44:31.745Z,2.53
2017-12-15T15:46:59.225Z,2.00
2017-12-15T15:49:26.761Z,2.50
2017-12-15T15:51:54.234Z,2.60
2017-12-15T15:54:21.706Z,2.40
2017-12-15T15:56:49.177Z,2.20
2017-12-15T15:59:17.401Z,2.27
2017-12-15T16:01:44.867Z,2.10
2017-12-15T16:04:12.344Z,2.40
2017-12-15T16:06:39.804Z,1.90
2017-12-15T16:09:07.279Z,2.83
2017-12-15T16:11:35.517Z,2.97
2017-12-15T16:14:02.981Z,2.80
2017-12-15T16:16:30.446Z,2.90
2017-12-15T16:18:57.916Z,2.87
2017-12-15T16:21:26.190Z,2.60
2017-12-15T16:23:54.418Z,2.93
2017-12-15T16:26:21.880Z,2.87
2017-12-15T16:28:49.354Z,2.83
2017-12-15T16:31:16.912Z,3.20
2017-12-15T16:33:44.415Z,3.20
2017-12-15T16:36:12.652Z,3.53
2017-12-15T16:38:40.107Z,3.60
2017-12-15T16:41:07.561Z,3.80
2017-12-15T16:43:35.033Z,3.13
2017-12-15T16:46:02.504Z,3.50
2017-12-15T16:48:30.739Z,3.50
2017-12-15T16:50:58.212Z,3.50
2017-12-15T16:53:25.694Z,4.07
2017-12-15T16:55:53.933Z,3.60
2017-12-15T16:58:21.401Z,3.73
2017-12-15T17:00:48.881Z,3.50
2017-12-15T17:03:17.211Z,3.80
2017-12-15T17:05:44.714Z,3.90
2017-12-15T17:08:12.958Z,3.80
2017-12-15T17:10:40.429Z,4.00
2017-12-15T17:13:07.881Z,3.60
2017-12-15T17:15:35.491Z,3.93
2017-12-15T17:18:02.953Z,3.90
2017-12-15T17:20:30.450Z,4.40
2017-12-15T17:22:57.914Z,4.60
2017-12-15T17:25:25.369Z,4.80
2017-12-15T17:27:52.834Z,5.43
2017-12-15T17:30:20.295Z,4.40
2017-12-15T17:32:48.555Z,5.20
2017-12-15T17:35:16.106Z,4.83
2017-12-15T17:37:45.085Z,5.83
2017-12-15T17:40:13.149Z,5.43
2017-12-15T17:42:40.609Z,5.03
2017-12-15T17:45:08.253Z,5.00
2017-12-15T17:47:35.709Z,4.27
2017-12-15T17:50:03.709Z,4.10
2017-12-15T17:52:31.181Z,4.57
2017-12-15T17:54:58.671Z,4.80
2017-12-15T17:57:26.138Z,3.60
2017-12-15T17:59:53.746Z,4.40
2017-12-15T18:02:21.220Z,4.77
2017-12-15T18:04:48.688Z,4.23
2017-12-15T18:07:16.948Z,4.30
2017-12-15T18:09:44.417Z,4.03
2017-12-15T18:12:12.632Z,4.27
2017-12-15T18:14:40.125Z,4.57
2017-12-15T18:17:07.585Z,4.70
2017-12-15T18:19:35.057Z,4.30
2017-12-15T18:22:03.312Z,4.67
2017-12-15T18:24:30.970Z,5.10
2017-12-15T18:26:58.473Z,4.20
2017-12-15T18:29:26.041Z,4.40
2017-12-15T18:31:53.485Z,4.70
2017-12-15T18:34:20.988Z,4.63
2017-12-15T18:36:48.500Z,4.90
2017-12-15T18:39:15.973Z,5.93
2017-12-15T18:41:43.467Z,6.47
2017-12-15T18:44:10.919Z,6.83
2017-12-15T18:46:38.394Z,7.47
2017-12-15T18:49:05.853Z,6.50
2017-12-15T18:51:33.329Z,7.90
2017-12-15T18:54:01.560Z,6.60
2017-12-15T18:56:29.028Z,7.53
2017-12-15T18:58:56.523Z,8.20
2017-12-15T19:01:23.983Z,8.27
2017-12-15T19:03:52.434Z,5.27
2017-12-15T19:06:19.892Z,5.33
2017-12-15T19:08:47.365Z,5.10
2017-12-15T19:11:15.586Z,5.20
2017-12-15T19:13:43.072Z,5.83
2017-12-15T19:16:10.534Z,6.07
2017-12-15T19:18:37.997Z,6.10
2017-12-15T19:21:05.458Z,5.73
2017-12-15T19:23:32.933Z,3.10
2017-12-15T19:26:01.153Z,3.80
2017-12-15T19:28:28.620Z,2.70
2017-12-15T19:30:56.073Z,3.37
2017-12-15T19:33:23.555Z,3.83
2017-12-15T19:35:51.476Z,3.50
2017-12-15T19:38:18.953Z,3.93
2017-12-15T19:40:46.425Z,4.40
2017-12-15T19:43:13.897Z,4.33
2017-12-15T19:45:42.326Z,4.30
2017-12-15T19:48:09.825Z,4.90
2017-12-15T19:50:37.566Z,5.27
2017-12-15T19:53:05.037Z,5.30
2017-12-15T19:55:32.516Z,4.90
2017-12-15T19:58:00.748Z,4.70
2017-12-15T20:00:28.246Z,4.80
2017-12-15T20:02:55.709Z,5.00
2017-12-15T20:05:24.144Z,4.80
2017-12-15T20:07:51.611Z,5.50
2017-12-15T20:10:19.081Z,4.90
2017-12-15T20:12:47.330Z,4.40
2017-12-15T20:15:14.914Z,4.17
2017-12-15T20:17:42.380Z,5.20
2017-12-15T20:20:09.860Z,4.63
2017-12-15T20:22:38.270Z,4.43
2017-12-15T20:25:05.898Z,5.20
2017-12-15T20:27:34.145Z,5.30
2017-12-15T20:30:01.628Z,5.30
2017-12-15T20:32:29.864Z,6.60
2017-12-15T20:34:57.316Z,6.03
2017-12-15T20:37:24.799Z,6.57
2017-12-15T20:39:53.025Z,7.17
2017-12-15T20:42:20.520Z,7.00
2017-12-15T20:44:49.501Z,7.97
2017-12-15T20:49:52.209Z,6.70
2017-12-15T20:52:19.685Z,7.47
2017-12-15T20:54:47.920Z,6.60
2017-12-15T20:57:15.411Z,6.93
2017-12-15T20:59:42.889Z,7.00
2017-12-15T21:02:10.836Z,6.93
2017-12-15T21:04:38.301Z,6.37
2017-12-15T21:07:06.526Z,7.10
2017-12-15T21:09:34.001Z,6.90
2017-12-15T21:12:01.469Z,7.80
2017-12-15T21:14:28.938Z,7.47
2017-12-15T21:16:56.415Z,7.83
2017-12-15T21:19:24.647Z,6.40
2017-12-15T21:21:52.205Z,7.20
2017-12-15T21:24:19.689Z,7.57
2017-12-15T21:26:48.010Z,8.40
2017-12-15T21:29:15.479Z,9.83
2017-12-15T21:31:43.061Z,9.20
2017-12-15T21:34:10.540Z,9.10
2017-12-15T21:36:38.022Z,8.23
2017-12-15T21:39:06.237Z,8.10
2017-12-15T21:41:33.748Z,8.57
2017-12-15T21:44:01.428Z,8.87
2017-12-15T21:46:28.930Z,8.00
2017-12-15T21:48:56.406Z,9.13
2017-12-15T21:51:24.653Z,8.27
2017-12-15T21:53:52.124Z,8.30
2017-12-15T21:56:19.592Z,8.83
2017-12-15T21:58:47.849Z,7.53
2017-12-15T22:01:15.525Z,8.00
2017-12-15T22:03:43.031Z,7.20
2017-12-15T22:06:10.654Z,8.43
2017-12-15T22:08:38.912Z,7.53
2017-12-15T22:11:06.372Z,7.77
2017-12-15T22:13:33.861Z,7.80
2017-12-15T22:16:01.324Z,7.97
2017-12-15T22:18:28.787Z,8.37
2017-12-15T22:20:56.257Z,9.77
2017-12-15T22:23:23.861Z,7.83
2017-12-15T22:25:51.326Z,8.40
2017-12-15T22:28:19.559Z,9.73
2017-12-15T22:30:47.021Z,8.57
2017-12-15T22:33:14.480Z,8.43
2017-12-15T22:35:41.956Z,8.43
2017-12-15T22:38:09.421Z,8.80
2017-12-15T22:40:36.946Z,7.50
2017-12-15T22:43:04.484Z,8.60
2017-12-15T22:45:31.993Z,7.60
2017-12-15T22:47:59.466Z,7.87
2017-12-15T22:50:27.705Z,7.50
2017-12-15T22:52:55.208Z,8.60
2017-12-15T22:55:23.427Z,8.70
2017-12-15T22:57:50.966Z,7.63
2017-12-15T23:00:18.645Z,8.43
2017-12-15T23:02:46.124Z,8.70
2017-12-15T23:05:13.588Z,8.80
2017-12-15T23:07:41.041Z,9.03
2017-12-15T23:10:08.515Z,8.07
2017-12-15T23:12:36.744Z,8.60
2017-12-15T23:15:04.222Z,8.70
2017-12-15T23:17:31.811Z,9.13
2017-12-15T23:20:00.036Z,8.53
2017-12-15T23:22:28.260Z,9.00
2017-12-15T23:24:56.495Z,9.23
2017-12-15T23:27:23.997Z,9.20
2017-12-15T23:29:52.237Z,8.57
2017-12-15T23:32:19.816Z,9.60
2017-12-15T23:34:48.058Z,9.53
2017-12-15T23:37:15.519Z,9.03
2017-12-15T23:39:42.981Z,8.83
2017-12-15T23:42:11.070Z,8.57
2017-12-15T23:44:38.541Z,8.80
2017-12-15T23:47:06.778Z,7.63
2017-12-15T23:49:34.261Z,8.33
2017-12-15T23:52:01.717Z,9.67
2017-12-15T23:54:40.969Z,8.50
2017-12-15T23:57:09.245Z,8.53
2017-12-15T23:59:37.572Z,9.70
